Time;durP1;ratioP1;P1;durP2;ratioP2;P2;SDS_P1;SDS_P2;PMS_P1;PMS_P2;Temp;Humidity;BMP_temperature;BMP_pressure;BME280_temperature;BME280_humidity;BME280_pressure;Samples;Min_cycle;Max_cycle;Signal;HPM_P1;HPM_P2
2023/02/08 00:01:08;;;;;;;13.32;6.57;;;19.10;99.90;;;;;;5073707;28;20033;-61
2023/02/08 00:03:34;;;;;;;;;;;19.10;99.90;;;;;;5074108;28;20043;-61
2023/02/08 00:05:59;;;;;;;8.68;5.32;;;19.10;99.90;;;;;;5066030;28;19909;-60
2023/02/08 00:08:25;;;;;;;15.85;6.55;;;19.10;99.90;;;;;;5053418;28;20025;-58
2023/02/08 00:10:51;;;;;;;13.38;6.30;;;19.10;99.90;;;;;;5066793;28;20376;-57
2023/02/08 00:13:17;;;;;;;12.93;6.82;;;19.00;99.90;;;;;;5053365;28;20025;-58
2023/02/08 00:15:44;;;;;;;11.20;6.55;;;19.10;99.90;;;;;;5057955;28;20428;-58
2023/02/08 00:18:11;;;;;;;12.02;6.57;;;19.00;99.90;;;;;;5061967;28;20482;-58
2023/02/08 00:20:41;;;;;;;13.68;6.57;;;19.00;99.90;;;;;;5057690;28;20036;-58
2023/02/08 00:23:07;;;;;;;12.20;6.45;;;19.00;99.90;;;;;;5068921;28;20459;-57
2023/02/08 00:25:33;;;;;;;10.75;6.32;;;19.00;99.90;;;;;;5051455;28;20086;-57
2023/02/08 00:27:59;;;;;;;11.68;6.47;;;19.00;99.90;;;;;;5052470;28;20017;-56
2023/02/08 00:30:24;;;;;;;10.32;6.18;;;19.00;99.90;;;;;;5053503;28;20044;-58
2023/02/08 00:32:50;;;;;;;13.35;6.75;;;19.00;99.90;;;;;;5051950;28;20021;-57
2023/02/08 00:59:12;;;;;;;12.20;6.28;;;18.90;99.90;;;;;;5035402;28;20585;-55
2023/02/08 01:01:38;;;;;;;12.07;6.72;;;18.90;99.90;;;;;;5051377;28;20049;-55
2023/02/08 01:04:04;;;;;;;10.57;6.10;;;18.90;99.90;;;;;;5051948;28;20033;-55
2023/02/08 01:06:30;;;;;;;11.18;6.63;;;18.90;99.90;;;;;;5052447;28;20154;-55
2023/02/08 01:08:56;;;;;;;11.23;6.63;;;18.80;99.90;;;;;;5033004;28;20124;-55
2023/02/08 01:11:26;;;;;;;9.82;6.80;;;18.90;99.90;;;;;;5051480;28;20021;-56
2023/02/08 01:13:54;;;;;;;13.23;7.20;;;18.80;99.90;;;;;;5052735;28;20032;-54
2023/02/08 01:16:23;;;;;;;14.60;7.57;;;18.80;99.90;;;;;;5052636;28;20017;-56
2023/02/08 01:18:51;;;;;;;11.32;6.80;;;18.80;99.90;;;;;;5050139;28;20025;-55
2023/02/08 01:21:18;;;;;;;;;;;18.80;99.90;;;;;;5052576;28;20032;-54
2023/02/08 01:23:45;;;;;;;13.13;6.50;;;18.80;99.90;;;;;;5051568;28;19917;-54
2023/02/08 01:26:12;;;;;;;13.53;7.53;;;18.80;99.90;;;;;;5050877;28;20079;-56
2023/02/08 01:28:39;;;;;;;11.90;6.57;;;18.80;99.90;;;;;;5051000;28;20375;-55
2023/02/08 01:31:10;;;;;;;12.27;6.65;;;18.80;99.90;;;;;;5052453;28;20108;-54
2023/02/08 01:33:37;;;;;;;13.85;6.68;;;18.80;99.90;;;;;;5052504;28;20027;-58
2023/02/08 01:36:04;;;;;;;13.13;7.03;;;18.80;99.90;;;;;;5051153;28;20044;-57
2023/02/08 01:38:29;;;;;;;12.23;7.13;;;18.80;99.90;;;;;;5051267;28;20048;-57
2023/02/08 01:40:55;;;;;;;13.65;7.03;;;18.80;99.90;;;;;;5052210;28;20029;-57
2023/02/08 01:43:24;;;;;;;12.25;7.30;;;18.80;99.90;;;;;;5052333;28;20534;-57
2023/02/08 01:45:51;;;;;;;15.55;8.02;;;18.80;99.90;;;;;;5049737;28;20021;-57
2023/02/08 01:48:22;;;;;;;14.00;7.72;;;18.80;99.90;;;;;;5051507;28;20021;-57
2023/02/08 01:51:10;;;;;;;10.85;6.65;;;18.80;99.90;;;;;;5052065;28;20025;-57
2023/02/08 01:53:36;;;;;;;11.30;7.28;;;18.70;99.90;;;;;;5050669;28;20021;-57
2023/02/08 01:56:10;;;;;;;12.07;7.15;;;18.70;99.90;;;;;;5050620;28;20040;-57
2023/02/08 01:58:42;;;;;;;11.30;6.80;;;18.70;99.90;;;;;;5051915;28;20017;-59
2023/02/08 02:01:09;;;;;;;12.40;6.72;;;18.80;99.90;;;;;;5052553;28;20430;-57
2023/02/08 02:03:35;;;;;;;13.90;7.68;;;18.70;99.90;;;;;;5049780;28;20028;-57
2023/02/08 02:06:06;;;;;;;10.27;6.30;;;18.70;99.90;;;;;;5051125;28;20033;-57
2023/02/08 02:08:32;;;;;;;11.43;6.68;;;18.70;99.90;;;;;;5034732;28;20538;-57
2023/02/08 02:10:58;;;;;;;13.45;6.78;;;18.70;99.90;;;;;;5055288;28;20032;-57
2023/02/08 02:13:26;;;;;;;16.05;7.22;;;18.70;99.90;;;;;;5053230;28;20103;-57
2023/02/08 02:15:52;;;;;;;;;;;18.70;99.90;;;;;;5038963;28;20040;-56
2023/02/08 02:18:29;;;;;;;14.00;6.35;;;18.70;99.90;;;;;;5056037;28;20362;-56
2023/02/08 02:21:10;;;;;;;11.70;6.47;;;18.70;99.90;;;;;;5054435;28;20087;-56
2023/02/08 02:24:08;;;;;;;11.15;6.60;;;18.70;99.90;;;;;;5054222;28;20021;-56
2023/02/08 02:27:08;;;;;;;11.73;6.40;;;18.70;99.90;;;;;;5055009;28;20021;-56
2023/02/08 02:30:21;;;;;;;9.18;6.15;;;18.70;99.90;;;;;;5054177;28;20037;-58
2023/02/08 02:33:02;;;;;;;12.00;6.43;;;18.60;99.90;;;;;;5054575;28;20083;-57
2023/02/08 02:35:44;;;;;;;11.90;6.40;;;18.60;99.90;;;;;;5055770;28;20060;-58
2023/02/08 02:38:51;;;;;;;9.80;6.60;;;18.60;99.90;;;;;;5055653;28;20108;-56
2023/02/08 02:44:50;;;;;;;12.73;6.88;;;18.70;99.90;;;;;;5035561;28;20091;-55
2023/02/08 02:47:36;;;;;;;12.32;6.80;;;18.60;99.90;;;;;;5043158;28;20104;-55
2023/02/08 02:50:18;;;;;;;10.48;6.15;;;18.60;99.90;;;;;;5033710;28;20037;-55
2023/02/08 02:53:02;;;;;;;9.60;6.15;;;18.60;99.90;;;;;;5033354;28;20021;-56
2023/02/08 02:55:34;;;;;;;14.50;6.10;;;18.60;99.90;;;;;;5040508;28;20025;-55
2023/02/08 02:58:01;;;;;;;9.85;6.18;;;18.60;99.90;;;;;;5055233;28;20071;-54
2023/02/08 03:00:29;;;;;;;9.27;5.75;;;18.60;99.90;;;;;;5070676;28;20049;-55
2023/02/08 03:02:57;;;;;;;8.82;5.60;;;18.60;99.90;;;;;;5074696;28;20031;-55
2023/02/08 03:05:24;;;;;;;8.48;5.70;;;18.60;99.90;;;;;;5071733;28;20020;-56
2023/02/08 03:08:16;;;;;;;9.18;5.43;;;18.60;99.90;;;;;;5054868;28;20374;-54
2023/02/08 03:11:11;;;;;;;11.05;6.20;;;18.60;99.90;;;;;;5045575;28;20067;-55
2023/02/08 03:14:02;;;;;;;9.57;6.22;;;18.60;99.90;;;;;;5072230;28;20202;-56
2023/02/08 03:17:06;;;;;;;10.45;5.95;;;18.60;99.90;;;;;;5074622;28;20073;-55
2023/02/08 03:19:46;;;;;;;11.77;6.22;;;18.50;99.90;;;;;;5002884;28;20512;-54
2023/02/08 03:22:27;;;;;;;8.63;5.63;;;18.60;99.90;;;;;;5056988;28;20092;-54
2023/02/08 03:25:30;;;;;;;9.73;5.82;;;18.60;99.90;;;;;;5067609;28;20020;-55
2023/02/08 03:28:15;;;;;;;8.57;5.57;;;18.50;99.90;;;;;;5028355;28;20041;-54
2023/02/08 03:31:16;;;;;;;10.05;5.88;;;18.50;99.90;;;;;;5067982;28;20036;-54
2023/02/08 03:33:52;;;;;;;8.60;5.82;;;18.50;99.90;;;;;;5050348;28;20036;-56
2023/02/08 03:36:31;;;;;;;8.07;5.60;;;18.60;99.90;;;;;;5067594;28;20116;-58
2023/02/08 03:39:01;;;;;;;8.80;4.95;;;18.50;99.90;;;;;;5067410;28;20029;-57
2023/02/08 03:41:32;;;;;;;10.43;5.72;;;18.50;99.90;;;;;;5074125;28;20016;-56
2023/02/08 03:44:15;;;;;;;8.38;4.82;;;18.50;99.90;;;;;;5074113;28;20026;-57
2023/02/08 03:46:49;;;;;;;10.80;6.18;;;18.50;99.90;;;;;;5074157;28;20374;-58
2023/02/08 03:49:20;;;;;;;8.95;5.45;;;18.50;99.90;;;;;;5071728;28;20029;-59
2023/02/08 03:51:46;;;;;;;9.07;6.22;;;18.50;99.90;;;;;;5054036;28;20028;-56
2023/02/08 03:54:19;;;;;;;8.55;4.80;;;18.50;99.90;;;;;;5055334;28;20375;-57
2023/02/08 03:57:14;;;;;;;9.27;5.10;;;18.50;99.90;;;;;;5074106;28;20016;-57
2023/02/08 03:59:42;;;;;;;8.32;5.10;;;18.50;99.90;;;;;;5067568;28;20040;-58
2023/02/08 04:02:11;;;;;;;7.45;4.78;;;18.50;99.90;;;;;;5053605;28;20056;-57
2023/02/08 04:04:42;;;;;;;6.93;4.50;;;18.50;99.90;;;;;;5047825;28;20029;-57
2023/02/08 04:07:09;;;;;;;7.32;4.63;;;18.50;99.90;;;;;;5073686;28;20474;-57
2023/02/08 04:09:34;;;;;;;6.32;4.05;;;18.50;99.90;;;;;;5060259;28;20463;-56
2023/02/08 04:12:00;;;;;;;8.23;4.47;;;18.50;99.90;;;;;;5053578;28;20052;-57
2023/02/08 04:14:26;;;;;;;7.10;4.82;;;18.50;99.90;;;;;;5065486;28;20032;-57
2023/02/08 04:16:52;;;;;;;7.63;4.45;;;18.50;99.90;;;;;;5069964;28;20028;-57
2023/02/08 04:19:17;;;;;;;7.20;4.20;;;18.50;99.90;;;;;;5063931;28;20469;-58
2023/02/08 04:21:43;;;;;;;8.32;4.78;;;18.50;99.90;;;;;;5073115;28;20043;-56
2023/02/08 04:24:09;;;;;;;7.65;4.32;;;18.50;99.90;;;;;;5064082;28;20116;-57
2023/02/08 04:26:35;;;;;;;9.13;4.20;;;18.50;99.90;;;;;;5055796;28;20071;-57
2023/02/08 04:29:00;;;;;;;6.47;4.28;;;18.50;99.90;;;;;;5063659;28;20033;-57
2023/02/08 04:31:26;;;;;;;7.20;4.38;;;18.50;99.90;;;;;;5066072;28;20434;-57
2023/02/08 04:33:52;;;;;;;9.00;4.55;;;18.50;99.90;;;;;;5060757;28;20481;-57
2023/02/08 04:36:18;;;;;;;6.28;4.13;;;18.50;99.90;;;;;;5073365;28;20025;-57
2023/02/08 04:38:44;;;;;;;6.72;4.40;;;18.50;99.90;;;;;;5059771;28;20156;-57
2023/02/08 04:41:09;;;;;;;7.03;4.15;;;18.50;99.90;;;;;;5073050;28;20024;-55
2023/02/08 04:43:36;;;;;;;15.10;4.03;;;18.50;99.90;;;;;;5052871;28;20112;-56
2023/02/08 04:46:02;;;;;;;6.10;3.80;;;18.50;99.90;;;;;;5053212;28;20083;-55
2023/02/08 04:48:28;;;;;;;7.80;4.85;;;18.50;99.90;;;;;;5070729;28;20040;-59
2023/02/08 04:50:55;;;;;;;9.85;4.40;;;18.50;99.90;;;;;;5063183;28;20433;-59
2023/02/08 04:53:21;;;;;;;6.32;4.20;;;18.50;99.90;;;;;;5039595;28;20096;-59
2023/02/08 04:55:47;;;;;;;8.05;4.82;;;18.50;99.90;;;;;;5052980;28;20086;-60
2023/02/08 04:58:13;;;;;;;7.40;3.78;;;18.50;99.90;;;;;;5054324;28;20458;-59
2023/02/08 05:00:39;;;;;;;10.60;4.72;;;18.40;99.90;;;;;;5047362;28;20490;-60
2023/02/08 05:03:05;;;;;;;6.93;4.43;;;18.50;99.90;;;;;;5052507;28;20031;-59
2023/02/08 05:05:31;;;;;;;5.95;3.70;;;18.50;99.90;;;;;;5072084;28;20028;-59
2023/02/08 05:07:57;;;;;;;6.05;4.28;;;18.40;99.90;;;;;;5059432;28;20456;-57
2023/02/08 05:10:23;;;;;;;7.18;4.13;;;18.40;99.90;;;;;;5052029;28;20517;-60
2023/02/08 05:12:49;;;;;;;6.75;4.20;;;18.40;99.90;;;;;;5065035;28;20020;-59
2023/02/08 05:15:15;;;;;;;7.10;3.80;;;18.40;99.90;;;;;;5072098;28;20028;-59
2023/02/08 05:17:41;;;;;;;7.05;3.70;;;18.40;99.90;;;;;;5061927;28;20120;-59
2023/02/08 05:20:07;;;;;;;5.88;3.45;;;18.40;99.90;;;;;;5034291;28;20017;-59
2023/02/08 05:22:33;;;;;;;5.45;3.75;;;18.40;99.90;;;;;;5063016;28;20020;-59
2023/02/08 05:24:59;;;;;;;7.32;3.55;;;18.40;99.90;;;;;;5058876;28;20391;-59
2023/02/08 05:27:25;;;;;;;5.60;3.70;;;18.40;99.90;;;;;;5072202;28;20082;-59
2023/02/08 05:29:51;;;;;;;6.07;3.95;;;18.40;99.90;;;;;;5055711;28;20386;-57
2023/02/08 05:32:17;;;;;;;7.53;3.60;;;18.40;99.90;;;;;;5060148;28;20024;-57
2023/02/08 05:34:43;;;;;;;8.52;4.00;;;18.40;99.90;;;;;;5058494;28;20378;-57
2023/02/08 05:37:08;;;;;;;8.23;4.65;;;18.40;99.90;;;;;;5071885;28;20036;-57
2023/02/08 05:39:34;;;;;;;6.80;3.67;;;18.40;99.90;;;;;;5058657;28;20031;-57
2023/02/08 05:42:00;;;;;;;5.80;3.40;;;18.40;99.90;;;;;;5058107;28;20066;-57
2023/02/08 05:44:26;;;;;;;6.03;4.00;;;18.40;99.90;;;;;;5060013;28;20025;-57
2023/02/08 05:46:51;;;;;;;6.97;4.20;;;18.40;99.90;;;;;;5047379;28;20017;-57
2023/02/08 05:49:17;;;;;;;7.50;3.55;;;18.40;99.90;;;;;;5057767;28;20094;-57
2023/02/08 05:51:43;;;;;;;5.30;3.20;;;18.40;99.90;;;;;;5061185;28;20021;-57
2023/02/08 05:54:09;;;;;;;6.45;4.07;;;18.40;99.90;;;;;;5062687;28;20078;-58
2023/02/08 05:56:35;;;;;;;5.53;3.17;;;18.40;99.90;;;;;;5068542;28;20020;-57
2023/02/08 05:59:01;;;;;;;6.97;3.58;;;18.40;99.90;;;;;;5051618;28;20406;-57
2023/02/08 06:01:27;;;;;;;8.30;3.67;;;18.40;99.90;;;;;;5051085;28;20048;-58
2023/02/08 06:03:53;;;;;;;6.28;3.72;;;18.40;99.90;;;;;;5060685;28;20025;-57
2023/02/08 06:06:19;;;;;;;6.88;3.63;;;18.40;99.90;;;;;;5058806;28;20526;-58
2023/02/08 06:08:45;;;;;;;6.00;3.80;;;18.40;99.90;;;;;;5046901;28;20036;-57
2023/02/08 06:11:11;;;;;;;7.97;4.50;;;18.30;99.90;;;;;;5063174;28;20028;-57
2023/02/08 06:13:38;;;;;;;6.93;4.00;;;18.40;99.90;;;;;;5035266;28;20027;-59
2023/02/08 06:16:04;;;;;;;5.97;3.55;;;18.30;99.90;;;;;;5051724;28;20463;-58
2023/02/08 06:18:30;;;;;;;9.43;5.53;;;18.30;99.90;;;;;;5068871;28;20044;-59
2023/02/08 06:20:56;;;;;;;6.97;4.25;;;18.30;99.90;;;;;;5071668;28;20473;-58
2023/02/08 06:23:22;;;;;;;8.43;3.92;;;18.30;99.90;;;;;;5071520;28;20416;-59
2023/02/08 06:25:48;;;;;;;6.07;3.92;;;18.30;99.90;;;;;;5062606;28;20017;-59
2023/02/08 06:28:14;;;;;;;9.40;4.38;;;18.30;99.90;;;;;;5051234;28;20445;-58
2023/02/08 06:30:40;;;;;;;8.50;4.20;;;18.30;99.90;;;;;;5056302;28;20100;-57
2023/02/08 06:33:06;;;;;;;10.07;3.80;;;18.30;99.90;;;;;;5070577;28;20028;-57
2023/02/08 06:35:32;;;;;;;8.38;4.32;;;18.30;99.90;;;;;;5065373;28;20083;-57
2023/02/08 06:37:58;;;;;;;12.85;4.00;;;18.30;99.90;;;;;;5062869;28;20071;-58
2023/02/08 06:40:24;;;;;;;7.38;3.80;;;18.30;99.90;;;;;;5071347;28;20048;-60
2023/02/08 06:42:50;;;;;;;11.15;4.30;;;18.30;99.90;;;;;;5065693;28;20049;-60
2023/02/08 06:45:16;;;;;;;10.25;4.57;;;18.30;99.90;;;;;;5059992;28;20043;-58
2023/02/08 06:47:42;;;;;;;7.15;4.10;;;18.30;99.90;;;;;;5070956;28;20026;-59
2023/02/08 06:50:09;;;;;;;10.05;4.90;;;18.30;99.90;;;;;;5070397;28;20033;-58
2023/02/08 06:52:35;;;;;;;6.25;4.10;;;18.30;99.90;;;;;;5067065;28;20529;-58
2023/02/08 06:55:01;;;;;;;7.82;4.53;;;18.30;99.90;;;;;;5072047;28;20127;-57
2023/02/08 06:57:27;;;;;;;8.50;5.00;;;18.30;99.90;;;;;;5074408;28;20099;-59
2023/02/08 06:59:52;;;;;;;8.95;4.72;;;18.30;99.90;;;;;;5074241;28;20032;-60
2023/02/08 07:02:20;;;;;;;10.95;5.13;;;18.30;99.90;;;;;;5074562;28;20024;-57
2023/02/08 07:04:47;;;;;;;11.00;5.22;;;18.30;99.90;;;;;;5069453;28;20025;-60
2023/02/08 07:07:14;;;;;;;7.70;4.70;;;18.30;99.90;;;;;;5046232;28;20089;-61
2023/02/08 07:09:40;;;;;;;9.60;5.22;;;18.30;99.90;;;;;;5062179;28;20051;-60
2023/02/08 07:12:07;;;;;;;9.75;4.50;;;18.30;99.90;;;;;;5068033;28;20123;-60
2023/02/08 07:14:39;;;;;;;8.50;4.63;;;18.30;99.90;;;;;;5054555;28;20025;-60
2023/02/08 07:17:05;;;;;;;7.63;4.13;;;18.30;99.90;;;;;;5042013;28;20545;-59
2023/02/08 07:19:31;;;;;;;9.88;4.30;;;18.30;99.90;;;;;;5054194;28;20033;-59
2023/02/08 07:22:06;;;;;;;8.23;4.70;;;18.30;99.90;;;;;;5054706;28;20047;-59
2023/02/08 07:24:34;;;;;;;16.65;6.18;;;18.30;99.90;;;;;;5054617;28;20028;-59
2023/02/08 07:27:00;;;;;;;8.80;4.25;;;18.30;99.90;;;;;;5074545;28;20070;-59
2023/02/08 07:29:28;;;;;;;9.82;4.75;;;18.30;99.90;;;;;;5062127;28;20063;-59
2023/02/08 07:31:54;;;;;;;9.55;3.95;;;18.20;99.90;;;;;;5060387;28;20012;-59
2023/02/08 07:34:20;;;;;;;8.30;5.15;;;18.20;99.90;;;;;;5074390;28;20568;-55
2023/02/08 07:36:48;;;;;;;7.88;4.00;;;18.30;99.90;;;;;;5060961;28;20023;-56
2023/02/08 07:39:14;;;;;;;10.13;4.47;;;18.20;99.90;;;;;;5074265;28;20370;-57
2023/02/08 07:41:40;;;;;;;8.27;4.88;;;18.20;99.90;;;;;;5055580;28;20024;-56
2023/02/08 07:44:06;;;;;;;7.68;4.63;;;18.30;99.90;;;;;;5063959;28;20048;-57
2023/02/08 07:46:31;;;;;;;11.35;4.40;;;18.20;99.90;;;;;;5039159;28;20419;-58
2023/02/08 07:48:57;;;;;;;6.75;4.22;;;18.20;99.90;;;;;;5054289;28;20067;-58
2023/02/08 07:51:23;;;;;;;11.52;4.55;;;18.20;99.90;;;;;;5053587;28;20032;-57
2023/02/08 07:53:50;;;;;;;9.65;4.47;;;18.20;99.90;;;;;;5053960;28;20444;-59
2023/02/08 07:56:16;;;;;;;10.95;4.32;;;18.30;99.90;;;;;;5035704;28;20025;-60
2023/02/08 07:58:42;;;;;;;8.82;4.28;;;18.20;99.90;;;;;;5067478;28;20470;-61
2023/02/08 08:01:08;;;;;;;11.75;5.05;;;18.30;99.90;;;;;;5053709;28;20053;-61
2023/02/08 08:03:33;;;;;;;8.00;4.40;;;18.20;99.90;;;;;;5056511;28;20019;-61
2023/02/08 08:05:59;;;;;;;7.80;4.07;;;18.20;99.90;;;;;;5065344;28;20021;-61
2023/02/08 08:08:25;;;;;;;8.65;4.55;;;18.20;99.90;;;;;;5040261;28;20029;-61
2023/02/08 08:10:50;;;;;;;14.55;4.95;;;18.20;99.90;;;;;;5053416;28;20071;-61
2023/02/08 08:13:16;;;;;;;8.65;4.43;;;18.20;99.90;;;;;;5053337;28;20035;-62
2023/02/08 08:15:42;;;;;;;9.68;4.47;;;18.20;99.90;;;;;;5052932;28;20021;-61
2023/02/08 08:18:08;;;;;;;8.00;4.32;;;18.20;99.90;;;;;;5066176;28;20052;-61
2023/02/08 08:20:34;;;;;;;10.13;4.88;;;18.20;99.90;;;;;;5060108;28;20474;-61
2023/02/08 08:23:00;;;;;;;9.30;4.70;;;18.20;99.90;;;;;;5073560;28;20482;-59
2023/02/08 08:25:26;;;;;;;11.55;5.07;;;18.20;99.90;;;;;;5069877;28;20021;-59
2023/02/08 08:27:53;;;;;;;9.05;5.38;;;18.20;99.90;;;;;;5063145;28;20035;-59
2023/02/08 08:30:19;;;;;;;10.73;5.57;;;18.20;99.90;;;;;;5069510;28;20033;-60
2023/02/08 08:32:45;;;;;;;11.50;5.80;;;18.20;99.90;;;;;;5063309;28;20032;-59
2023/02/08 08:35:11;;;;;;;12.98;6.75;;;18.20;99.90;;;;;;5059230;28;20023;-60
2023/02/08 08:37:37;;;;;;;12.77;6.85;;;18.20;99.90;;;;;;5062678;28;20406;-60
2023/02/08 08:40:05;;;;;;;8.80;5.63;;;18.20;99.90;;;;;;5056128;28;20025;-60
2023/02/08 08:42:32;;;;;;;11.85;6.32;;;18.20;99.90;;;;;;5073090;28;20023;-60
2023/02/08 08:44:58;;;;;;;12.23;7.10;;;18.20;99.90;;;;;;5037979;28;20478;-62
2023/02/08 08:47:23;;;;;;;12.18;7.57;;;18.20;99.90;;;;;;5061088;28;20036;-60
2023/02/08 08:49:49;;;;;;;10.55;6.28;;;18.20;99.90;;;;;;5041410;28;20071;-61
2023/02/08 08:52:15;;;;;;;9.88;6.18;;;18.20;99.90;;;;;;5072807;28;20029;-61
2023/02/08 08:54:41;;;;;;;11.45;6.95;;;18.20;99.90;;;;;;5059178;28;20032;-61
2023/02/08 08:57:06;;;;;;;12.10;6.90;;;18.20;99.90;;;;;;5036738;28;20021;-61
2023/02/08 08:59:33;;;;;;;10.85;6.40;;;18.20;99.90;;;;;;5052790;28;20029;-61
2023/02/08 09:01:59;;;;;;;12.40;7.10;;;18.20;99.90;;;;;;5038727;28;20111;-61
2023/02/08 09:04:25;;;;;;;9.80;6.78;;;18.20;99.90;;;;;;5072503;28;20035;-61
2023/02/08 09:06:52;;;;;;;14.35;7.40;;;18.20;99.90;;;;;;5056284;28;20021;-61
2023/02/08 09:09:18;;;;;;;11.70;7.45;;;18.20;99.90;;;;;;5052671;28;20029;-62
2023/02/08 09:11:44;;;;;;;12.05;7.05;;;18.20;99.90;;;;;;5052220;28;20037;-61
2023/02/08 09:14:10;;;;;;;11.68;6.80;;;18.20;99.90;;;;;;5052199;28;20025;-61
2023/02/08 09:16:36;;;;;;;11.75;7.22;;;18.20;99.90;;;;;;5052111;28;20174;-62
2023/02/08 09:19:03;;;;;;;12.30;7.65;;;18.20;99.90;;;;;;5052166;28;20017;-61
2023/02/08 09:21:29;;;;;;;11.00;7.00;;;18.20;99.90;;;;;;5052333;28;20071;-61
2023/02/08 09:23:55;;;;;;;13.70;7.78;;;18.20;99.90;;;;;;5052024;28;20033;-61
2023/02/08 09:26:22;;;;;;;14.50;7.72;;;18.20;99.90;;;;;;5052244;28;20029;-61
2023/02/08 09:28:48;;;;;;;11.40;7.43;;;18.20;99.90;;;;;;5067835;28;20063;-61
2023/02/08 09:31:23;;;;;;;16.38;7.35;;;18.20;99.90;;;;;;5072186;28;20107;-61
2023/02/08 09:33:50;;;;;;;10.55;6.38;;;18.20;99.90;;;;;;5068294;28;20498;-62
2023/02/08 09:36:16;;;;;;;12.23;6.45;;;18.20;99.90;;;;;;5051637;28;20025;-61
2023/02/08 09:38:43;;;;;;;12.25;7.10;;;18.20;99.90;;;;;;5051781;28;20111;-61
2023/02/08 09:41:12;;;;;;;13.10;7.43;;;18.20;99.90;;;;;;5052006;28;20031;-61
2023/02/08 09:44:02;;;;;;;12.77;6.85;;;18.20;99.90;;;;;;5067457;28;20033;-61
2023/02/08 09:46:31;;;;;;;10.00;6.03;;;18.20;99.90;;;;;;5061655;28;20029;-61
2023/02/08 09:49:01;;;;;;;10.77;6.43;;;18.20;99.90;;;;;;5069388;28;20083;-60
2023/02/08 09:51:38;;;;;;;10.23;7.15;;;18.20;99.90;;;;;;5071613;28;20547;-59
2023/02/08 09:54:24;;;;;;;12.40;6.50;;;18.20;99.90;;;;;;5067889;28;20021;-59
2023/02/08 09:56:52;;;;;;;11.10;6.00;;;18.20;99.90;;;;;;5051592;28;20032;-59
2023/02/08 09:59:28;;;;;;;11.32;6.45;;;18.20;99.90;;;;;;5051711;28;20075;-60
2023/02/08 10:02:38;;;;;;;10.38;6.18;;;18.20;99.90;;;;;;5051345;28;20053;-60
2023/02/08 10:05:06;;;;;;;13.98;6.57;;;18.20;99.90;;;;;;4965727;28;20035;-60
2023/02/08 10:07:33;;;;;;;;;;;18.20;99.90;;;;;;5027320;28;20095;-60
2023/02/08 10:10:02;;;;;;;9.65;5.90;;;18.20;99.90;;;;;;5052213;28;19962;-60
2023/02/08 10:12:46;;;;;;;9.68;5.57;;;18.20;99.90;;;;;;5071666;28;20453;-60
2023/02/08 10:15:14;;;;;;;9.90;5.45;;;18.20;99.90;;;;;;5058147;28;20387;-61
2023/02/08 10:17:58;;;;;;;9.73;5.60;;;18.20;99.90;;;;;;5071664;28;20016;-61
2023/02/08 10:20:43;;;;;;;11.48;6.35;;;18.20;99.90;;;;;;5053019;28;20029;-62
2023/02/08 10:23:30;;;;;;;11.38;6.35;;;18.20;99.90;;;;;;5064064;28;20054;-63
2023/02/08 10:25:56;;;;;;;11.93;6.90;;;18.20;99.90;;;;;;5071480;28;20020;-63
2023/02/08 10:28:49;;;;;;;9.77;6.25;;;18.20;99.90;;;;;;5057777;28;20029;-61
2023/02/08 10:31:36;;;;;;;14.52;6.85;;;18.20;99.90;;;;;;5066206;28;20032;-62
2023/02/08 10:34:17;;;;;;;9.30;5.38;;;18.20;99.90;;;;;;5040917;28;20474;-61
2023/02/08 10:36:43;;;;;;;10.82;6.25;;;18.20;99.90;;;;;;5068037;28;20025;-61
2023/02/08 10:39:18;;;;;;;12.45;6.57;;;18.20;99.90;;;;;;5043112;28;20029;-61
2023/02/08 10:41:45;;;;;;;8.90;5.97;;;18.20;99.90;;;;;;5055376;28;20037;-60
2023/02/08 10:44:24;;;;;;;9.38;6.35;;;18.20;99.90;;;;;;5062611;28;20019;-62
2023/02/08 10:47:19;;;;;;;10.30;6.57;;;18.20;99.90;;;;;;5075284;28;20032;-62
2023/02/08 10:50:05;;;;;;;11.27;7.07;;;18.20;99.90;;;;;;5075021;28;20040;-61
2023/02/08 10:52:31;;;;;;;12.05;7.32;;;18.20;99.90;;;;;;5075232;28;20035;-61
2023/02/08 10:54:58;;;;;;;11.38;6.75;;;18.20;99.90;;;;;;5062317;28;20025;-61
2023/02/08 10:57:30;;;;;;;11.77;7.22;;;18.20;99.90;;;;;;5068165;28;20047;-61
2023/02/08 11:00:01;;;;;;;12.70;7.22;;;18.20;99.90;;;;;;5054668;28;20036;-61
2023/02/08 11:02:38;;;;;;;11.98;6.38;;;18.20;99.90;;;;;;5060993;28;20470;-61
2023/02/08 11:05:09;;;;;;;10.65;7.57;;;18.20;99.90;;;;;;5061365;28;20510;-60
2023/02/08 11:07:35;;;;;;;12.65;7.25;;;18.20;99.90;;;;;;5050260;28;20055;-60
2023/02/08 11:10:19;;;;;;;12.75;8.63;;;18.20;99.90;;;;;;5054612;28;20051;-60
2023/02/08 11:13:13;;;;;;;13.38;8.18;;;18.20;99.90;;;;;;5054419;28;20017;-60
2023/02/08 11:15:46;;;;;;;16.30;8.57;;;18.20;99.90;;;;;;5054630;28;20027;-58
2023/02/08 11:18:26;;;;;;;16.45;9.98;;;18.20;99.90;;;;;;5054620;28;20021;-60
2023/02/08 11:21:01;;;;;;;15.77;9.25;;;18.20;99.90;;;;;;5047345;28;20036;-61
2023/02/08 11:23:30;;;;;;;13.65;9.38;;;18.20;99.90;;;;;;5060898;28;20018;-61
2023/02/08 11:26:18;;;;;;;15.07;8.40;;;18.20;99.90;;;;;;5074493;28;20016;-61
2023/02/08 11:28:57;;;;;;;13.07;8.35;;;18.20;99.90;;;;;;5058170;28;20111;-60
2023/02/08 11:31:23;;;;;;;13.95;8.85;;;18.20;99.90;;;;;;5036409;28;20079;-60
2023/02/08 11:34:08;;;;;;;13.70;8.98;;;18.20;99.90;;;;;;5069349;28;20041;-60
2023/02/08 11:36:35;;;;;;;13.95;9.63;;;18.20;99.90;;;;;;5066845;28;20028;-61
2023/02/08 11:39:17;;;;;;;14.50;9.38;;;18.20;99.90;;;;;;5060555;28;20016;-60
2023/02/08 11:41:46;;;;;;;15.82;10.10;;;18.20;99.90;;;;;;5059275;28;20033;-59
2023/02/08 11:44:26;;;;;;;15.50;10.30;;;18.20;99.90;;;;;;5048272;28;20025;-60
2023/02/08 11:46:52;;;;;;;12.48;9.27;;;18.20;99.90;;;;;;5073722;28;20372;-60
2023/02/08 11:49:41;;;;;;;14.45;9.88;;;18.20;99.90;;;;;;5066183;28;20041;-60
2023/02/08 11:52:26;;;;;;;15.55;10.15;;;18.30;99.90;;;;;;5071167;28;20024;-59
2023/02/08 11:54:54;;;;;;;16.63;10.25;;;18.30;99.90;;;;;;5073949;28;20024;-59
2023/02/08 11:57:23;;;;;;;19.23;10.68;;;18.30;99.90;;;;;;5074742;28;20013;-58
2023/02/08 11:59:51;;;;;;;14.63;9.90;;;18.30;99.90;;;;;;5066796;28;20060;-57
2023/02/08 12:02:29;;;;;;;13.70;10.48;;;18.30;99.90;;;;;;5055733;28;20017;-60
2023/02/08 12:04:55;;;;;;;;;;;18.30;99.90;;;;;;5067515;28;20043;-59
2023/02/08 12:07:37;;;;;;;15.77;11.00;;;18.30;99.90;;;;;;5073652;28;19936;-59
2023/02/08 12:10:19;;;;;;;15.93;10.30;;;18.40;99.90;;;;;;5060062;28;20033;-59
2023/02/08 12:13:03;;;;;;;14.27;9.85;;;18.30;99.90;;;;;;5051669;28;20054;-59
2023/02/08 12:15:48;;;;;;;15.43;10.07;;;18.30;99.90;;;;;;5056394;28;20020;-57
2023/02/08 12:18:22;;;;;;;12.43;8.43;;;18.30;99.90;;;;;;5053551;28;20025;-58
2023/02/08 12:21:06;;;;;;;16.63;9.88;;;18.40;99.90;;;;;;5053415;28;20123;-57
2023/02/08 12:23:46;;;;;;;15.65;10.07;;;18.30;99.90;;;;;;5067771;28;20101;-58
2023/02/08 12:26:32;;;;;;;14.50;9.73;;;18.40;99.90;;;;;;5073525;28;20390;-59
2023/02/08 12:29:12;;;;;;;14.85;9.23;;;18.40;99.90;;;;;;5055310;28;20431;-59
2023/02/08 12:32:15;;;;;;;16.17;9.38;;;18.40;99.90;;;;;;5053013;28;20092;-58
2023/02/08 12:35:14;;;;;;;14.93;8.70;;;18.40;99.90;;;;;;5043323;28;20128;-58
2023/02/08 12:41:20;;;;;;;12.20;8.60;;;18.40;99.90;;;;;;5053089;28;20410;-59
2023/02/08 12:44:19;;;;;;;11.23;7.82;;;18.40;99.90;;;;;;5066564;28;20486;-60
2023/02/08 12:47:10;;;;;;;12.32;7.75;;;18.40;99.90;;;;;;5067754;28;20025;-60
2023/02/08 12:49:41;;;;;;;12.00;7.90;;;18.40;99.90;;;;;;5052895;28;20075;-58
2023/02/08 12:53:00;;;;;;;11.68;8.20;;;18.40;99.90;;;;;;5052249;28;20029;-58
2023/02/08 12:55:30;;;;;;;12.27;8.18;;;18.40;99.90;;;;;;5025836;28;20038;-58
2023/02/08 12:58:21;;;;;;;9.85;7.00;;;18.40;99.90;;;;;;5062800;28;20025;-58
2023/02/08 13:00:49;;;;;;;10.60;7.50;;;18.40;99.90;;;;;;5038002;28;20368;-58
2023/02/08 13:03:36;;;;;;;12.68;7.22;;;18.40;99.90;;;;;;5052643;28;20100;-57
2023/02/08 13:06:06;;;;;;;10.80;7.28;;;18.40;99.90;;;;;;5052490;28;20100;-59
2023/02/08 13:08:59;;;;;;;10.70;7.10;;;18.40;99.90;;;;;;5065838;28;20028;-56
2023/02/08 13:11:42;;;;;;;10.65;7.40;;;18.40;99.90;;;;;;5052499;28;20028;-59
2023/02/08 13:14:23;;;;;;;9.15;6.68;;;18.40;99.90;;;;;;5052386;28;20052;-58
2023/02/08 13:16:54;;;;;;;10.75;7.68;;;18.40;99.90;;;;;;5053226;28;20017;-58
2023/02/08 13:19:28;;;;;;;9.07;7.18;;;18.40;99.90;;;;;;5063977;28;20108;-59
2023/02/08 13:21:56;;;;;;;11.07;6.78;;;18.40;99.90;;;;;;5065290;28;20389;-61
2023/02/08 13:24:38;;;;;;;9.20;6.32;;;18.40;99.90;;;;;;5052442;28;20366;-58
2023/02/08 13:27:06;;;;;;;10.30;6.80;;;18.40;99.90;;;;;;5066977;28;20047;-58
2023/02/08 13:29:34;;;;;;;10.07;6.88;;;18.40;99.90;;;;;;5061386;28;20067;-59
2023/02/08 13:32:05;;;;;;;10.48;6.68;;;18.50;99.90;;;;;;5069155;28;20087;-59
2023/02/08 13:34:47;;;;;;;10.65;7.03;;;18.40;99.90;;;;;;5051873;28;20025;-58
2023/02/08 13:37:26;;;;;;;8.57;5.95;;;18.40;99.90;;;;;;5055860;28;20016;-58